SKUC/AUC METAR and TAF weather

Enter ICAO airport designator
Station Type Date Time Source
SKUC METAR 2020/11/11 11:00 UTC NOAA

SKUC 111100Z 00000KT 9999 -DZ BKN020 25/25 A2989


Station Type Date Time Source
SKUC Decoded METAR 2020/11/11 11:00 UTC NOAA

Arauca / Santiago Perez, Colombia (SKUC) 07-04N 070-44W 128M
Nov 11, 2020 - 06:00 AM EST / 2020.11.11 1100 UTC
Wind: Calm:0
Visibility: greater than 7 mile(s):0
Sky conditions: mostly cloudy
Weather: light drizzle
Temperature: 77 F (25 C)
Dew Point: 77 F (25 C)
Relative Humidity: 100%
Pressure (altimeter): 29.89 in. Hg (1012 hPa)
ob: SKUC 111100Z 00000KT 9999 -DZ BKN020 25/25 A2989
cycle: 11

Station Type Date Time Source
SKUC TAF UTC NOAA

Error!

Example: see airport list